Time;durP1;ratioP1;P1;durP2;ratioP2;P2;SDS_P1;SDS_P2;PMS_P1;PMS_P2;Temp;Humidity;BMP_temperature;BMP_pressure;BME280_temperature;BME280_humidity;BME280_pressure;Samples;Min_cycle;Max_cycle;Signal;HPM_P1;HPM_P2
2021/07/14 00:02:17;;;;;;;;;11.00;11.00;;;;;;;;5008436;28;8850;-82
2021/07/14 00:04:44;;;;;;;;;11.75;10.75;;;;;;;;5013383;28;8895;-81
2021/07/14 00:07:11;;;;;;;;;11.50;9.50;;;;;;;;5006724;28;8997;-82
2021/07/14 00:09:38;;;;;;;;;9.50;9.50;;;;;;;;5015491;28;8975;-80
2021/07/14 00:12:08;;;;;;;;;11.50;11.50;;;;;;;;5007666;28;8883;-83
2021/07/14 00:15:01;;;;;;;;;12.00;8.00;;;;;;;;5007323;28;8855;-84
2021/07/14 00:17:39;;;;;;;;;12.50;11.75;;;;;;;;5000578;28;8869;-78
2021/07/14 00:22:52;;;;;;;;;13.50;13.50;;;;;;;;5016443;28;8869;-78
2021/07/14 00:25:20;;;;;;;;;13.75;13.25;;;;;;;;5007848;28;8993;-77
2021/07/14 00:27:49;;;;;;;;;14.25;14.25;;;;;;;;5015909;28;8869;-77
2021/07/14 00:30:24;;;;;;;;;14.25;14.25;;;;;;;;5008100;28;8878;-76
2021/07/14 00:32:51;;;;;;;;;14.00;12.50;;;;;;;;5000147;28;8867;-80
2021/07/14 00:35:19;;;;;;;;;14.00;12.00;;;;;;;;5007244;28;8989;-81
2021/07/14 00:37:46;;;;;;;;;12.00;12.00;;;;;;;;5004935;28;8998;-84
2021/07/14 00:40:14;;;;;;;;;12.50;11.25;;;;;;;;5011208;28;8973;-78
2021/07/14 00:42:42;;;;;;;;;12.75;11.75;;;;;;;;5012853;28;8885;-81
2021/07/14 00:45:11;;;;;;;;;12.25;12.25;;;;;;;;5009723;28;8878;-77
2021/07/14 00:47:44;;;;;;;;;14.00;12.75;;;;;;;;5005939;28;8862;-79
2021/07/14 00:50:12;;;;;;;;;14.00;14.00;;;;;;;;5001809;28;8874;-82
2021/07/14 00:52:40;;;;;;;;;13.25;12.50;;;;;;;;5004120;28;8889;-83
2021/07/14 00:55:08;;;;;;;;;19.25;15.00;;;;;;;;5003714;28;8885;-77
2021/07/14 00:57:35;;;;;;;;;18.00;15.00;;;;;;;;5009211;28;8885;-78
2021/07/14 01:00:03;;;;;;;;;13.75;13.75;;;;;;;;5009045;28;8871;-82
2021/07/14 01:02:30;;;;;;;;;14.00;14.00;;;;;;;;5009110;28;8818;-79
2021/07/14 01:05:04;;;;;;;;;14.50;12.75;;;;;;;;5003004;28;8914;-82
2021/07/14 01:07:33;;;;;;;;;15.75;15.75;;;;;;;;5012708;28;8923;-81
2021/07/14 01:10:05;;;;;;;;;16.00;13.50;;;;;;;;5009134;28;8899;-79
2021/07/14 01:12:39;;;;;;;;;15.75;14.00;;;;;;;;5009395;28;8863;-80
2021/07/14 01:15:10;;;;;;;;;14.50;14.50;;;;;;;;5003349;28;8963;-80
2021/07/14 01:17:42;;;;;;;;;17.00;14.50;;;;;;;;5001757;28;8898;-80
2021/07/14 01:20:19;;;;;;;;;12.25;12.25;;;;;;;;5006598;28;8863;-81
2021/07/14 01:22:58;;;;;;;;;9.50;8.50;;;;;;;;5015129;28;8879;-78
2021/07/14 01:25:34;;;;;;;;;14.75;13.00;;;;;;;;5005741;28;8932;-78
2021/07/14 01:28:03;;;;;;;;;15.75;14.00;;;;;;;;5003100;28;8917;-78
2021/07/14 01:30:31;;;;;;;;;18.00;15.75;;;;;;;;5003432;28;8807;-77
2021/07/14 01:33:00;;;;;;;;;15.00;13.25;;;;;;;;5007345;28;8948;-80
2021/07/14 01:35:31;;;;;;;;;15.50;14.00;;;;;;;;5005603;28;9617;-81
2021/07/14 01:37:59;;;;;;;;;12.75;12.75;;;;;;;;5008395;28;8887;-83
2021/07/14 01:40:27;;;;;;;;;11.00;8.00;;;;;;;;5006828;28;8878;-81
2021/07/14 01:42:57;;;;;;;;;13.00;13.00;;;;;;;;5008152;28;8851;-83
2021/07/14 01:45:30;;;;;;;;;15.75;14.00;;;;;;;;5006913;28;8894;-78
2021/07/14 01:47:59;;;;;;;;;10.00;10.00;;;;;;;;5007516;28;9829;-79
2021/07/14 01:50:28;;;;;;;;;12.75;12.50;;;;;;;;5007110;28;8916;-83
2021/07/14 01:52:56;;;;;;;;;10.00;10.00;;;;;;;;5007247;28;8918;-82
2021/07/14 01:55:25;;;;;;;;;13.00;13.00;;;;;;;;5007149;28;8921;-84
2021/07/14 01:57:54;;;;;;;;;9.50;9.50;;;;;;;;5006450;28;9664;-80
2021/07/14 02:00:22;;;;;;;;;16.00;15.25;;;;;;;;5005386;28;8862;-78
2021/07/14 02:02:54;;;;;;;;;14.00;12.75;;;;;;;;5006948;28;8874;-84
2021/07/14 02:05:22;;;;;;;;;13.75;13.25;;;;;;;;4973588;28;8905;-84
2021/07/14 02:07:50;;;;;;;;;13.75;12.00;;;;;;;;5006576;28;8998;-81
2021/07/14 02:10:18;;;;;;;;;14.00;12.00;;;;;;;;4988147;28;8886;-81
2021/07/14 02:12:47;;;;;;;;;7.75;7.75;;;;;;;;5007505;28;8863;-80
2021/07/14 02:15:14;;;;;;;;;16.25;11.75;;;;;;;;5005445;28;8886;-81
2021/07/14 02:17:45;;;;;;;;;19.50;15.75;;;;;;;;5006775;28;8863;-81
2021/07/14 02:20:17;;;;;;;;;15.50;13.75;;;;;;;;5002279;28;8867;-81
2021/07/14 02:22:45;;;;;;;;;12.00;9.75;;;;;;;;5006800;28;8876;-78
2021/07/14 02:25:13;;;;;;;;;12.75;12.75;;;;;;;;5006513;28;8870;-78
2021/07/14 02:27:41;;;;;;;;;14.25;13.00;;;;;;;;5005613;28;8890;-79
2021/07/14 02:30:16;;;;;;;;;14.25;11.75;;;;;;;;5006368;28;8880;-80
2021/07/14 02:32:43;;;;;;;;;13.00;12.00;;;;;;;;5005666;28;8882;-81
2021/07/14 02:35:13;;;;;;;;;13.75;13.00;;;;;;;;5007142;28;8883;-79
2021/07/14 02:37:46;;;;;;;;;13.00;11.75;;;;;;;;5006731;28;8879;-81
2021/07/14 02:40:17;;;;;;;;;13.00;12.00;;;;;;;;5012182;28;8883;-84
2021/07/14 02:42:46;;;;;;;;;15.50;13.75;;;;;;;;5014811;28;8856;-82
2021/07/14 02:45:13;;;;;;;;;16.75;16.25;;;;;;;;5005944;28;8904;-82
2021/07/14 02:47:42;;;;;;;;;15.50;14.75;;;;;;;;5011792;28;8875;-82
2021/07/14 02:50:16;;;;;;;;;14.75;12.75;;;;;;;;5011054;28;8869;-82
2021/07/14 02:52:46;;;;;;;;;13.50;12.25;;;;;;;;5006921;28;8884;-83
2021/07/14 02:55:17;;;;;;;;;16.25;14.75;;;;;;;;5013481;28;8987;-79
2021/07/14 02:57:46;;;;;;;;;17.00;17.00;;;;;;;;5009222;28;8853;-80
2021/07/14 03:00:15;;;;;;;;;13.75;13.75;;;;;;;;5001348;28;9003;-77
2021/07/14 03:02:43;;;;;;;;;19.50;14.50;;;;;;;;5006002;28;8880;-80
2021/07/14 03:05:12;;;;;;;;;20.75;19.75;;;;;;;;5006422;28;8871;-78
2021/07/14 03:07:42;;;;;;;;;17.50;16.75;;;;;;;;5006825;28;9688;-80
2021/07/14 03:10:10;;;;;;;;;21.00;16.50;;;;;;;;5009475;28;8912;-80
2021/07/14 03:12:38;;;;;;;;;18.00;18.00;;;;;;;;5019622;28;8838;-83
2021/07/14 03:15:08;;;;;;;;;18.25;16.00;;;;;;;;5011233;28;8876;-79
2021/07/14 03:17:36;;;;;;;;;16.50;15.25;;;;;;;;5009139;28;8967;-77
2021/07/14 03:20:07;;;;;;;;;22.50;18.25;;;;;;;;5012405;28;8875;-79
2021/07/14 03:22:37;;;;;;;;;17.25;17.25;;;;;;;;5009901;28;9636;-81
2021/07/14 03:25:05;;;;;;;;;17.25;16.50;;;;;;;;5008832;28;8855;-80
2021/07/14 03:27:32;;;;;;;;;16.75;15.50;;;;;;;;5006261;28;8948;-80
2021/07/14 03:30:00;;;;;;;;;16.50;16.50;;;;;;;;5015358;28;8966;-81
2021/07/14 03:32:27;;;;;;;;;20.50;20.00;;;;;;;;5021331;28;8858;-84
2021/07/14 03:34:55;;;;;;;;;20.25;19.00;;;;;;;;5004964;28;8855;-79
2021/07/14 03:37:23;;;;;;;;;15.50;14.50;;;;;;;;5003546;28;9003;-82
2021/07/14 03:39:52;;;;;;;;;17.50;17.50;;;;;;;;5012279;28;8961;-81
2021/07/14 03:42:20;;;;;;;;;17.00;17.00;;;;;;;;5003889;28;8863;-81
2021/07/14 03:44:48;;;;;;;;;15.50;15.50;;;;;;;;5014437;28;8991;-82
2021/07/14 03:47:17;;;;;;;;;15.00;14.00;;;;;;;;5018727;28;8859;-82
2021/07/14 03:49:46;;;;;;;;;18.50;17.25;;;;;;;;5008857;28;8861;-81
2021/07/14 03:52:14;;;;;;;;;14.00;12.25;;;;;;;;5005265;28;8886;-79
2021/07/14 03:54:42;;;;;;;;;16.50;14.25;;;;;;;;5004301;28;8859;-81
2021/07/14 03:57:11;;;;;;;;;17.00;15.25;;;;;;;;5014334;28;8868;-83
2021/07/14 03:59:39;;;;;;;;;19.50;16.00;;;;;;;;5004860;28;8879;-77
2021/07/14 04:02:08;;;;;;;;;18.75;15.50;;;;;;;;5015210;28;8821;-76
2021/07/14 04:04:36;;;;;;;;;14.50;14.50;;;;;;;;5007409;28;8878;-77
2021/07/14 04:07:06;;;;;;;;;18.50;15.75;;;;;;;;5005940;28;9016;-79
2021/07/14 04:09:34;;;;;;;;;16.50;15.00;;;;;;;;5017663;28;8895;-84
2021/07/14 04:12:02;;;;;;;;;13.00;12.50;;;;;;;;5003809;28;8879;-82
2021/07/14 04:14:32;;;;;;;;;15.25;15.25;;;;;;;;5004481;28;8870;-83
2021/07/14 04:17:00;;;;;;;;;14.75;13.25;;;;;;;;5003169;28;8911;-81
2021/07/14 04:19:27;;;;;;;;;13.75;13.00;;;;;;;;4990257;28;8920;-84
2021/07/14 04:21:55;;;;;;;;;14.50;13.00;;;;;;;;4984519;28;9007;-82
2021/07/14 04:24:22;;;;;;;;;14.75;12.75;;;;;;;;5023804;28;8877;-81
2021/07/14 04:26:50;;;;;;;;;9.25;9.25;;;;;;;;5014465;28;9004;-82
2021/07/14 04:29:18;;;;;;;;;11.75;11.75;;;;;;;;5010803;28;8950;-80
2021/07/14 04:31:47;;;;;;;;;9.00;9.00;;;;;;;;5010215;28;8809;-81
2021/07/14 04:34:14;;;;;;;;;11.75;11.50;;;;;;;;5002833;28;8982;-79
2021/07/14 04:36:42;;;;;;;;;7.00;7.00;;;;;;;;5005069;28;8876;-77
2021/07/14 04:39:10;;;;;;;;;11.00;11.00;;;;;;;;5004559;28;8874;-77
2021/07/14 04:41:38;;;;;;;;;11.50;11.50;;;;;;;;5003492;28;8866;-78
2021/07/14 04:44:08;;;;;;;;;11.00;11.00;;;;;;;;5004456;28;8842;-77
2021/07/14 04:46:35;;;;;;;;;15.75;11.00;;;;;;;;5003896;28;8892;-79
2021/07/14 04:49:05;;;;;;;;;8.50;8.50;;;;;;;;5003977;28;9636;-81
2021/07/14 04:51:32;;;;;;;;;8.00;6.50;;;;;;;;5002652;28;8896;-81
2021/07/14 04:53:59;;;;;;;;;11.75;9.75;;;;;;;;5004083;28;8880;-80
2021/07/14 04:56:27;;;;;;;;;11.50;10.50;;;;;;;;5003272;28;8980;-78
2021/07/14 04:58:54;;;;;;;;;11.00;8.00;;;;;;;;5004201;28;8896;-77
2021/07/14 05:01:21;;;;;;;;;12.00;10.50;;;;;;;;5000934;28;8836;-82
2021/07/14 05:03:48;;;;;;;;;10.25;10.25;;;;;;;;5002740;28;8883;-80
2021/07/14 05:06:18;;;;;;;;;7.25;7.25;;;;;;;;5001346;28;9733;-83
2021/07/14 05:08:46;;;;;;;;;14.25;10.25;;;;;;;;5003697;28;9618;-82
2021/07/14 05:11:14;;;;;;;;;14.50;10.25;;;;;;;;5004737;28;8845;-80
2021/07/14 05:13:41;;;;;;;;;6.75;6.75;;;;;;;;5008444;28;8885;-82
2021/07/14 05:16:09;;;;;;;;;10.50;7.25;;;;;;;;4975605;28;8889;-81
2021/07/14 05:18:36;;;;;;;;;11.25;11.25;;;;;;;;5003608;28;9687;-81
2021/07/14 05:21:04;;;;;;;;;15.00;10.25;;;;;;;;5004311;28;8871;-82
2021/07/14 05:23:33;;;;;;;;;9.00;7.50;;;;;;;;5004541;28;8870;-79
2021/07/14 05:26:00;;;;;;;;;12.75;10.50;;;;;;;;5001765;28;8936;-80
2021/07/14 05:28:28;;;;;;;;;11.00;11.00;;;;;;;;5011856;28;8865;-81
2021/07/14 05:30:56;;;;;;;;;11.00;11.00;;;;;;;;5023170;28;8821;-82
2021/07/14 05:33:24;;;;;;;;;14.75;13.25;;;;;;;;5023550;28;8980;-79
2021/07/14 05:35:54;;;;;;;;;16.50;15.00;;;;;;;;5006188;28;8904;-80
2021/07/14 05:38:21;;;;;;;;;12.00;12.00;;;;;;;;5023559;28;8873;-86
2021/07/14 05:40:51;;;;;;;;;13.50;13.50;;;;;;;;5024029;28;8977;-79
2021/07/14 05:43:19;;;;;;;;;7.75;7.75;;;;;;;;5022100;28;8884;-80
2021/07/14 05:45:47;;;;;;;;;11.00;10.50;;;;;;;;5023964;28;8967;-80
2021/07/14 05:48:15;;;;;;;;;8.00;8.00;;;;;;;;5022538;28;8876;-79
2021/07/14 05:50:45;;;;;;;;;8.00;8.00;;;;;;;;5024391;28;8892;-77
2021/07/14 05:53:13;;;;;;;;;10.00;10.00;;;;;;;;5018785;28;9011;-76
2021/07/14 05:55:40;;;;;;;;;13.25;10.75;;;;;;;;5013849;28;8865;-76
2021/07/14 05:58:11;;;;;;;;;8.50;8.50;;;;;;;;5013598;28;8894;-73
2021/07/14 06:00:38;;;;;;;;;7.25;7.25;;;;;;;;5020305;28;8863;-77
2021/07/14 06:03:05;;;;;;;;;7.50;7.50;;;;;;;;5023533;28;8857;-76
2021/07/14 06:05:33;;;;;;;;;13.25;9.50;;;;;;;;5022237;28;9674;-74
2021/07/14 06:08:00;;;;;;;;;6.75;6.75;;;;;;;;5023404;28;8877;-79
2021/07/14 06:10:28;;;;;;;;;10.00;9.00;;;;;;;;5022062;28;8884;-79
2021/07/14 06:12:56;;;;;;;;;8.50;8.50;;;;;;;;5007041;28;8983;-78
2021/07/14 06:15:26;;;;;;;;;10.50;8.75;;;;;;;;5004972;28;8858;-77
2021/07/14 06:17:53;;;;;;;;;11.25;9.75;;;;;;;;5024984;28;8975;-77
2021/07/14 06:20:21;;;;;;;;;10.25;7.75;;;;;;;;5026830;28;8868;-81
2021/07/14 06:22:48;;;;;;;;;13.75;12.00;;;;;;;;5025151;28;8852;-81
2021/07/14 06:25:17;;;;;;;;;10.50;8.25;;;;;;;;5027506;28;8856;-79
2021/07/14 06:27:45;;;;;;;;;10.75;8.50;;;;;;;;5016959;28;8871;-78
2021/07/14 06:30:14;;;;;;;;;11.25;7.00;;;;;;;;4996489;28;8887;-76
2021/07/14 06:32:43;;;;;;;;;7.75;7.00;;;;;;;;5011366;28;8860;-80
2021/07/14 06:35:13;;;;;;;;;9.75;7.25;;;;;;;;5012895;28;9647;-82
2021/07/14 06:37:41;;;;;;;;;10.00;8.75;;;;;;;;5007143;28;8872;-79
2021/07/14 06:40:10;;;;;;;;;10.75;10.50;;;;;;;;5016333;28;8869;-79
2021/07/14 06:42:38;;;;;;;;;8.75;8.75;;;;;;;;5016347;28;8903;-83
2021/07/14 06:45:06;;;;;;;;;8.50;8.50;;;;;;;;5005727;28;8897;-80
2021/07/14 06:47:33;;;;;;;;;7.25;7.25;;;;;;;;5008827;28;8869;-82
2021/07/14 06:50:02;;;;;;;;;6.00;6.00;;;;;;;;5006812;28;8871;-75
2021/07/14 06:52:29;;;;;;;;;8.25;8.25;;;;;;;;5005595;28;8883;-78
2021/07/14 06:54:56;;;;;;;;;8.75;8.75;;;;;;;;5008459;28;9679;-75
2021/07/14 06:57:25;;;;;;;;;10.00;7.00;;;;;;;;5005486;28;8874;-75
2021/07/14 06:59:52;;;;;;;;;7.25;6.00;;;;;;;;5007067;28;8904;-82
2021/07/14 07:02:19;;;;;;;;;7.00;7.00;;;;;;;;5007015;28;8816;-76
2021/07/14 07:04:46;;;;;;;;;7.75;7.75;;;;;;;;5006089;28;8886;-78
2021/07/14 07:07:15;;;;;;;;;7.50;7.00;;;;;;;;5004638;28;8981;-81
2021/07/14 07:09:44;;;;;;;;;6.25;6.25;;;;;;;;5009116;28;9694;-79
2021/07/14 07:12:11;;;;;;;;;7.75;7.75;;;;;;;;4986636;28;8990;-78
2021/07/14 07:14:40;;;;;;;;;6.50;6.50;;;;;;;;5004812;28;8867;-77
2021/07/14 07:17:07;;;;;;;;;7.75;5.00;;;;;;;;5006825;28;8929;-82
2021/07/14 07:19:35;;;;;;;;;4.50;4.50;;;;;;;;4990425;28;8982;-77
2021/07/14 07:22:02;;;;;;;;;5.50;5.50;;;;;;;;5004190;28;8903;-79
2021/07/14 07:24:31;;;;;;;;;6.25;6.00;;;;;;;;4999109;28;9635;-79
2021/07/14 07:26:59;;;;;;;;;7.25;7.25;;;;;;;;5006343;28;8989;-81
2021/07/14 07:29:27;;;;;;;;;4.25;4.25;;;;;;;;5005486;28;8863;-78
2021/07/14 07:31:54;;;;;;;;;7.00;7.00;;;;;;;;5003417;28;8949;-81
2021/07/14 07:34:22;;;;;;;;;6.00;6.00;;;;;;;;5005729;28;8842;-78
2021/07/14 07:36:49;;;;;;;;;5.25;5.25;;;;;;;;5008644;28;8864;-90
2021/07/14 07:39:17;;;;;;;;;7.00;5.50;;;;;;;;5007234;28;8987;-88
2021/07/14 07:41:46;;;;;;;;;7.00;7.00;;;;;;;;4996499;28;9700;-81
2021/07/14 07:44:13;;;;;;;;;5.00;5.00;;;;;;;;5003095;28;8954;-83
2021/07/14 07:46:41;;;;;;;;;6.00;6.00;;;;;;;;5000567;28;8974;-83
2021/07/14 07:49:09;;;;;;;;;11.25;9.00;;;;;;;;5004104;28;8909;-83
2021/07/14 07:51:36;;;;;;;;;5.50;5.50;;;;;;;;5005887;28;8850;-85
2021/07/14 07:54:04;;;;;;;;;7.00;5.00;;;;;;;;4999513;28;8871;-85
2021/07/14 07:56:33;;;;;;;;;5.00;5.00;;;;;;;;5007746;28;9299;-83
2021/07/14 07:59:02;;;;;;;;;7.50;5.25;;;;;;;;5003416;28;8904;-86
2021/07/14 08:01:32;;;;;;;;;8.00;7.25;;;;;;;;5005494;28;8825;-83
2021/07/14 08:03:59;;;;;;;;;5.75;5.50;;;;;;;;5008099;28;8859;-84
2021/07/14 08:06:26;;;;;;;;;7.75;6.50;;;;;;;;5003577;28;8854;-78
2021/07/14 08:08:54;;;;;;;;;5.75;5.75;;;;;;;;5004852;28;8859;-84
2021/07/14 08:11:24;;;;;;;;;4.75;4.75;;;;;;;;5006092;28;8920;-77
2021/07/14 08:13:54;;;;;;;;;5.75;3.75;;;;;;;;5007066;28;8882;-77
2021/07/14 08:16:23;;;;;;;;;5.00;5.00;;;;;;;;5005896;28;8879;-83
2021/07/14 08:18:50;;;;;;;;;2.00;2.00;;;;;;;;5002068;28;8875;-80
2021/07/14 08:21:18;;;;;;;;;5.50;5.50;;;;;;;;5000036;28;8981;-78
2021/07/14 08:23:45;;;;;;;;;4.75;4.75;;;;;;;;5000876;28;9732;-86
2021/07/14 08:26:13;;;;;;;;;5.00;5.00;;;;;;;;5000526;28;8890;-86
2021/07/14 08:28:40;;;;;;;;;1.00;1.00;;;;;;;;5004512;28;8865;-82
2021/07/14 08:31:07;;;;;;;;;5.00;5.00;;;;;;;;5003146;28;8837;-85
2021/07/14 08:33:36;;;;;;;;;5.00;4.50;;;;;;;;5001745;28;8875;-83
2021/07/14 08:36:04;;;;;;;;;3.00;3.00;;;;;;;;5003191;28;8880;-83
2021/07/14 08:38:31;;;;;;;;;9.00;9.00;;;;;;;;5003367;28;9701;-77
2021/07/14 08:40:59;;;;;;;;;6.25;6.25;;;;;;;;5001414;28;9005;-77
2021/07/14 08:43:28;;;;;;;;;4.00;4.00;;;;;;;;5003220;28;9025;-81
2021/07/14 08:45:58;;;;;;;;;8.75;8.75;;;;;;;;5002814;28;8933;-80
2021/07/14 08:48:27;;;;;;;;;7.00;6.00;;;;;;;;5000340;28;8879;-81
2021/07/14 08:50:57;;;;;;;;;8.50;8.00;;;;;;;;4984159;28;8876;-86
2021/07/14 08:53:25;;;;;;;;;6.25;6.25;;;;;;;;4987284;28;8872;-82
2021/07/14 08:55:52;;;;;;;;;5.50;5.50;;;;;;;;5001792;28;8867;-86
2021/07/14 08:58:22;;;;;;;;;9.25;9.25;;;;;;;;4984641;28;8918;-81
2021/07/14 09:00:51;;;;;;;;;6.50;6.25;;;;;;;;4999588;28;9608;-83
2021/07/14 09:03:19;;;;;;;;;6.50;6.50;;;;;;;;5001207;28;8882;-82
2021/07/14 09:05:46;;;;;;;;;6.00;6.00;;;;;;;;5003045;28;8859;-80
2021/07/14 09:08:15;;;;;;;;;5.00;4.00;;;;;;;;5001331;28;8939;-81
2021/07/14 09:10:45;;;;;;;;;6.25;6.25;;;;;;;;5001132;28;8879;-83
2021/07/14 09:13:13;;;;;;;;;6.25;5.50;;;;;;;;5000978;28;8889;-85
2021/07/14 09:15:42;;;;;;;;;6.25;6.25;;;;;;;;5003453;28;9843;-81
2021/07/14 09:18:10;;;;;;;;;7.75;7.75;;;;;;;;5002588;28;8874;-82
2021/07/14 09:20:38;;;;;;;;;5.00;5.00;;;;;;;;5003311;28;9677;-81
2021/07/14 09:23:07;;;;;;;;;7.00;5.00;;;;;;;;5002211;28;8861;-81
2021/07/14 09:25:45;;;;;;;;;6.50;5.75;;;;;;;;5000875;28;8855;-83
2021/07/14 09:28:14;;;;;;;;;6.00;4.25;;;;;;;;5006503;28;8874;-82
2021/07/14 09:30:42;;;;;;;;;5.25;5.25;;;;;;;;5000477;28;8794;-87
2021/07/14 09:33:11;;;;;;;;;5.50;5.50;;;;;;;;5001824;28;8968;-82
2021/07/14 09:35:41;;;;;;;;;4.00;4.00;;;;;;;;5002282;28;8879;-85
2021/07/14 09:38:10;;;;;;;;;6.50;5.50;;;;;;;;5001065;28;8927;-81
2021/07/14 09:40:38;;;;;;;;;6.00;6.00;;;;;;;;5011254;28;8862;-86
2021/07/14 09:43:11;;;;;;;;;6.00;6.00;;;;;;;;5011570;28;8984;-81
2021/07/14 09:45:45;;;;;;;;;5.00;5.00;;;;;;;;5002324;28;8998;-81
2021/07/14 09:48:15;;;;;;;;;5.25;5.25;;;;;;;;5000450;28;8924;-84
2021/07/14 09:50:43;;;;;;;;;6.25;6.25;;;;;;;;5012280;28;8898;-81
2021/07/14 09:53:11;;;;;;;;;6.00;4.25;;;;;;;;5005492;28;8932;-81
2021/07/14 09:55:40;;;;;;;;;6.75;6.00;;;;;;;;5005182;28;8846;-78
2021/07/14 09:58:12;;;;;;;;;7.25;7.00;;;;;;;;5006407;28;8885;-83
2021/07/14 10:00:41;;;;;;;;;6.00;6.00;;;;;;;;5018636;28;8835;-78
2021/07/14 10:03:08;;;;;;;;;5.25;5.25;;;;;;;;5008945;28;8867;-82
2021/07/14 10:05:36;;;;;;;;;4.25;4.00;;;;;;;;4993217;28;8876;-80
2021/07/14 10:08:19;;;;;;;;;4.00;4.00;;;;;;;;5005906;28;8930;-83
2021/07/14 10:10:47;;;;;;;;;4.75;4.75;;;;;;;;5004801;28;8882;-81
2021/07/14 10:13:21;;;;;;;;;7.50;6.00;;;;;;;;5003236;28;8879;-78
2021/07/14 10:16:00;;;;;;;;;5.00;5.00;;;;;;;;5006294;28;8861;-83
2021/07/14 10:18:28;;;;;;;;;9.25;6.75;;;;;;;;5023490;28;8949;-81
2021/07/14 10:20:55;;;;;;;;;7.25;7.00;;;;;;;;5002240;28;8887;-84
2021/07/14 10:23:23;;;;;;;;;7.00;6.00;;;;;;;;4997385;28;8891;-80
2021/07/14 10:25:50;;;;;;;;;7.00;7.00;;;;;;;;4988740;28;8929;-82
2021/07/14 10:28:22;;;;;;;;;7.50;6.25;;;;;;;;5015542;28;8879;-81
2021/07/14 10:30:52;;;;;;;;;5.25;5.25;;;;;;;;5023087;28;8915;-81
2021/07/14 10:33:21;;;;;;;;;6.25;6.25;;;;;;;;5025305;28;8861;-80
2021/07/14 10:35:51;;;;;;;;;7.00;5.75;;;;;;;;5026509;28;8871;-80
2021/07/14 10:38:20;;;;;;;;;5.75;5.75;;;;;;;;5036465;28;8870;-79
2021/07/14 10:40:49;;;;;;;;;5.00;5.00;;;;;;;;5025924;28;8865;-78
2021/07/14 10:43:21;;;;;;;;;6.00;6.00;;;;;;;;5024385;28;8866;-82
2021/07/14 10:45:49;;;;;;;;;7.00;5.00;;;;;;;;5025591;28;8893;-82
2021/07/14 10:48:18;;;;;;;;;4.75;4.75;;;;;;;;5023565;28;8887;-82
2021/07/14 10:50:46;;;;;;;;;5.75;5.75;;;;;;;;5018063;28;8879;-85
2021/07/14 10:53:14;;;;;;;;;5.50;5.50;;;;;;;;5023781;28;8891;-76
2021/07/14 10:55:43;;;;;;;;;5.50;4.25;;;;;;;;5022274;28;8892;-81
2021/07/14 10:58:12;;;;;;;;;6.50;5.75;;;;;;;;5018727;28;8879;-77
2021/07/14 11:00:42;;;;;;;;;5.50;5.50;;;;;;;;5013465;28;8805;-81
2021/07/14 11:03:47;;;;;;;;;6.25;6.25;;;;;;;;5023014;28;8871;-80
2021/07/14 11:06:16;;;;;;;;;7.00;5.50;;;;;;;;5023894;28;10184;-83
2021/07/14 11:08:46;;;;;;;;;6.25;6.00;;;;;;;;5028389;28;8903;-80
2021/07/14 11:11:16;;;;;;;;;5.00;4.50;;;;;;;;5025964;28;8852;-87
2021/07/14 11:13:43;;;;;;;;;5.75;5.75;;;;;;;;5004824;28;8905;-83
2021/07/14 11:16:32;;;;;;;;;5.25;5.25;;;;;;;;5024009;28;8861;-79
2021/07/14 11:19:10;;;;;;;;;5.75;5.75;;;;;;;;5029013;28;8880;-79
2021/07/14 11:21:49;;;;;;;;;6.00;6.00;;;;;;;;5025993;28;8927;-88
2021/07/14 11:24:51;;;;;;;;;6.25;4.50;;;;;;;;5025011;28;8910;-80
2021/07/14 11:27:55;;;;;;;;;6.25;6.25;;;;;;;;5022568;28;8894;-90
2021/07/14 11:30:41;;;;;;;;;6.25;6.25;;;;;;;;5006994;28;8860;-82
2021/07/14 11:33:10;;;;;;;;;6.25;6.25;;;;;;;;4987150;28;8973;-84
2021/07/14 11:35:45;;;;;;;;;5.75;5.00;;;;;;;;5004565;28;8917;-76
2021/07/14 11:38:19;;;;;;;;;6.00;6.00;;;;;;;;5004956;28;8876;-85
2021/07/14 11:40:48;;;;;;;;;6.40;6.00;;;;;;;;5001666;28;8906;-78
2021/07/14 11:43:23;;;;;;;;;7.50;7.50;;;;;;;;5003044;28;8874;-83
2021/07/14 11:45:52;;;;;;;;;5.75;5.75;;;;;;;;5000303;28;8879;-85
2021/07/14 11:48:35;;;;;;;;;3.00;3.00;;;;;;;;5004535;28;8931;-83
2021/07/14 11:51:05;;;;;;;;;5.75;5.75;;;;;;;;4985869;28;8862;-83
2021/07/14 11:53:39;;;;;;;;;5.60;5.60;;;;;;;;5003336;28;8859;-77
2021/07/14 11:56:10;;;;;;;;;5.60;5.60;;;;;;;;4988591;28;8917;-84
2021/07/14 11:58:51;;;;;;;;;5.00;5.00;;;;;;;;5004446;28;8873;-77
2021/07/14 12:01:56;;;;;;;;;6.00;5.00;;;;;;;;5008448;28;8831;-81
2021/07/14 12:04:26;;;;;;;;;7.60;5.60;;;;;;;;5002791;28;9577;-77
2021/07/14 12:07:00;;;;;;;;;6.20;5.20;;;;;;;;5013349;28;8908;-78
2021/07/14 12:09:31;;;;;;;;;5.60;5.60;;;;;;;;4984754;28;8887;-82
2021/07/14 12:12:00;;;;;;;;;6.00;6.00;;;;;;;;5003500;28;8892;-80
2021/07/14 12:14:29;;;;;;;;;6.80;5.80;;;;;;;;5002814;28;8914;-81
2021/07/14 12:16:59;;;;;;;;;3.60;3.60;;;;;;;;5004039;28;9608;-79
2021/07/14 12:19:29;;;;;;;;;5.80;5.80;;;;;;;;5006983;28;8961;-77
2021/07/14 12:21:57;;;;;;;;;6.20;4.80;;;;;;;;5006101;28;8892;-79
2021/07/14 12:24:31;;;;;;;;;5.00;5.00;;;;;;;;5003110;28;8908;-80
2021/07/14 12:27:00;;;;;;;;;5.00;5.00;;;;;;;;5005637;28;8890;-82
2021/07/14 12:29:28;;;;;;;;;6.00;4.20;;;;;;;;5022111;28;8874;-84
2021/07/14 12:31:55;;;;;;;;;9.00;7.40;;;;;;;;5016249;28;8841;-83
2021/07/14 12:34:24;;;;;;;;;8.40;8.40;;;;;;;;5023193;28;8910;-85
2021/07/14 12:36:54;;;;;;;;;7.20;7.20;;;;;;;;5020680;28;9411;-80
2021/07/14 12:39:26;;;;;;;;;8.60;8.60;;;;;;;;5022562;28;8990;-83
2021/07/14 12:41:54;;;;;;;;;7.20;7.20;;;;;;;;5002129;28;8869;-81
2021/07/14 12:44:22;;;;;;;;;9.20;8.20;;;;;;;;5022462;28;8893;-84
2021/07/14 12:46:50;;;;;;;;;8.80;8.80;;;;;;;;5022362;28;8864;-78
2021/07/14 12:49:20;;;;;;;;;11.80;7.20;;;;;;;;5018958;28;8872;-83
2021/07/14 12:52:06;;;;;;;;;5.80;5.00;;;;;;;;5020782;28;8968;-86
2021/07/14 12:54:34;;;;;;;;;7.00;7.00;;;;;;;;5003911;28;8873;-81
2021/07/14 12:57:23;;;;;;;;;9.20;9.20;;;;;;;;5022049;28;8894;-81
2021/07/14 13:00:00;;;;;;;;;9.00;9.00;;;;;;;;4998894;28;8860;-78
2021/07/14 13:02:29;;;;;;;;;7.20;7.00;;;;;;;;5020187;28;8858;-82
2021/07/14 13:04:59;;;;;;;;;6.50;6.50;;;;;;;;5011638;28;8876;-80
2021/07/14 13:07:29;;;;;;;;;11.25;10.50;;;;;;;;5020653;28;8915;-76
2021/07/14 13:09:59;;;;;;;;;9.50;9.50;;;;;;;;5021855;28;8984;-82
2021/07/14 13:12:27;;;;;;;;;12.50;10.50;;;;;;;;5020278;28;8857;-81
2021/07/14 13:14:55;;;;;;;;;11.00;10.25;;;;;;;;5021283;28;8876;-79
2021/07/14 13:17:27;;;;;;;;;12.00;10.00;;;;;;;;5021905;28;9555;-89
2021/07/14 13:20:04;;;;;;;;;9.00;9.00;;;;;;;;5020507;28;8884;-86
2021/07/14 13:22:33;;;;;;;;;8.00;8.00;;;;;;;;5019859;28;8912;-84
2021/07/14 13:25:05;;;;;;;;;10.00;8.75;;;;;;;;5019346;28;8986;-83
2021/07/14 13:27:37;;;;;;;;;8.50;7.00;;;;;;;;5014260;28;8993;-79
2021/07/14 13:30:28;;;;;;;;;7.00;7.00;;;;;;;;5001066;28;8945;-81
2021/07/14 13:33:04;;;;;;;;;9.75;9.75;;;;;;;;5000575;28;8877;-82
2021/07/14 13:35:39;;;;;;;;;7.60;7.60;;;;;;;;5000600;28;8969;-81
2021/07/14 13:38:38;;;;;;;;;8.20;7.00;;;;;;;;4999616;28;8885;-82
2021/07/14 13:41:21;;;;;;;;;9.80;9.40;;;;;;;;5011215;28;8886;-78
2021/07/14 13:43:51;;;;;;;;;8.40;8.40;;;;;;;;5000752;28;8871;-84
2021/07/14 13:46:23;;;;;;;;;7.20;6.20;;;;;;;;4999459;28;8961;-82
2021/07/14 13:48:56;;;;;;;;;9.20;7.00;;;;;;;;5000136;28;8904;-84
2021/07/14 13:51:39;;;;;;;;;7.00;7.00;;;;;;;;5003228;28;9601;-83
2021/07/14 13:54:19;;;;;;;;;7.60;7.60;;;;;;;;4996987;28;8903;-82
2021/07/14 13:56:47;;;;;;;;;7.20;7.20;;;;;;;;5002304;28;8851;-76
2021/07/14 13:59:26;;;;;;;;;8.00;8.00;;;;;;;;4993199;28;9661;-82
2021/07/14 14:01:58;;;;;;;;;6.80;6.80;;;;;;;;4969279;28;8829;-78
2021/07/14 14:04:26;;;;;;;;;9.00;9.00;;;;;;;;4989766;28;8886;-78
2021/07/14 14:06:59;;;;;;;;;7.60;7.60;;;;;;;;5009199;28;8884;-76
2021/07/14 14:09:28;;;;;;;;;6.60;6.60;;;;;;;;4999195;28;8892;-79
2021/07/14 14:11:58;;;;;;;;;7.00;7.00;;;;;;;;4999917;28;8894;-75
2021/07/14 14:14:25;;;;;;;;;6.40;6.40;;;;;;;;5002592;28;8854;-78
2021/07/14 14:16:52;;;;;;;;;6.00;6.00;;;;;;;;5001382;28;8876;-77
2021/07/14 14:19:20;;;;;;;;;7.80;7.80;;;;;;;;5000297;28;8933;-77
2021/07/14 14:21:55;;;;;;;;;8.20;7.00;;;;;;;;5000312;28;9700;-78
2021/07/14 14:24:22;;;;;;;;;8.60;7.00;;;;;;;;5001305;28;8895;-78
2021/07/14 14:26:53;;;;;;;;;4.40;4.00;;;;;;;;5002611;28;8862;-80
2021/07/14 14:29:23;;;;;;;;;5.40;5.40;;;;;;;;5017325;28;8880;-80
2021/07/14 14:31:50;;;;;;;;;6.20;6.20;;;;;;;;5020428;28;8887;-77
2021/07/14 14:34:18;;;;;;;;;8.00;6.80;;;;;;;;5020238;28;8896;-79
2021/07/14 14:36:46;;;;;;;;;6.00;6.00;;;;;;;;5020621;28;8877;-77
2021/07/14 14:39:14;;;;;;;;;8.00;8.00;;;;;;;;5021087;28;8837;-76
2021/07/14 14:41:41;;;;;;;;;6.25;6.25;;;;;;;;5005172;28;8868;-76
2021/07/14 14:44:10;;;;;;;;;6.25;6.25;;;;;;;;5024358;28;8881;-82
2021/07/14 14:46:37;;;;;;;;;7.00;7.00;;;;;;;;5023927;28;8865;-76
2021/07/14 14:49:05;;;;;;;;;6.50;6.50;;;;;;;;5024470;28;8869;-81
2021/07/14 14:51:32;;;;;;;;;7.75;7.75;;;;;;;;5022428;28;8872;-74
2021/07/14 14:53:59;;;;;;;;;6.50;6.50;;;;;;;;5017294;28;8895;-79
2021/07/14 14:56:26;;;;;;;;;8.00;6.00;;;;;;;;5021521;28;9369;-78
2021/07/14 14:58:53;;;;;;;;;10.50;9.50;;;;;;;;5021940;28;8884;-77
2021/07/14 15:01:23;;;;;;;;;9.00;7.00;;;;;;;;5015517;28;8829;-79
2021/07/14 15:03:50;;;;;;;;;6.00;6.00;;;;;;;;5022422;28;8876;-77
2021/07/14 15:06:17;;;;;;;;;8.00;7.50;;;;;;;;5024322;28;8872;-76